Aviation Digital Data Service (ADDS)

Output produced by TAFs form (0215 UTC 21 April 2018)
found at http://aviationweather.gov/adds/tafs/
 
METAR text: RJOY 210200Z VRB03KT CAVOK 24/08 Q1021
Conditions at: RJOY (YAO (CIV/JGSDF) , JP) observed 0200 UTC 21 April 2018
Temperature: 24.0°C (75°F)
Dewpoint: 8.0°C (46°F) [RH = 36%]
Pressure (altimeter): 30.15 inches Hg (1021.0 mb)
Winds: variable direction winds at 3 MPH (3 knots; 1.6 m/s)
Visibility: 6 or more miles (10+ km)
Ceiling: ceiling and visibility are OK
Clouds: unknown
Weather: no significant weather observed at this time